Tubul — A8VP8 — position and weather

sailwx.info

Track history (hours):
 
Tides and Currents Weather Stations Pressure Air Temp Water Temp Dewpoint Dewpoint Depression Visibility Wind Speed Wind Dir Waves Ship Positions

Tubul

Last reported at 2015-Jul-20 16:23 UTC. Time now 2015-Jul-28 03:30 UTC.
Position N 03°21' E 100°22'.

Length 300 m; draft 12.7 m.

Type: Ship. MMSI: 636014647.

Date/timePositionNaut miles runAvg speedWind from/ knotsBaromVisibWave heightAir tempDewpointWater temp
2015-Jul-20 16:23N 03°21' E 100°22'1717.4
2015-Jul-20 15:23N 03°11' E 100°36'1817.5
2015-Jul-20 14:21N 02°60' E 100°50'3117.2
2015-Jul-20 12:33N 02°42' E 101°15'3417.0
2015-Jul-20 10:33N 02°24' E 101°44'136 2.9
2015-Jul-18 11:32N 01°13' E 103°40'7 6.4
2015-Jul-18 10:29N 01°17' E 103°46'0 0.0
2015-Jul-18 09:26N 01°17' E 103°46'0 0.0
2015-Jul-18 08:29N 01°17' E 103°46'0 0.0
2015-Jul-18 07:29N 01°17' E 103°46'0 0.0
2015-Jul-18 06:26N 01°17' E 103°46'0 0.0
2015-Jul-18 05:29N 01°17' E 103°46'0 0.0
2015-Jul-18 04:29N 01°17' E 103°46'0 0.0
2015-Jul-18 03:17N 01°17' E 103°46'0 0.0
2015-Jul-18 02:29N 01°17' E 103°46'0 0.0
2015-Jul-18 01:29N 01°17' E 103°46'0 0.0
2015-Jul-18 00:29N 01°17' E 103°46'0 0.0
2015-Jul-17 23:17N 01°17' E 103°46'0 0.0
2015-Jul-17 21:29N 01°17' E 103°46'0 0.0
2015-Jul-17 20:26N 01°17' E 103°46'0 0.0
2015-Jul-17 19:29N 01°17' E 103°46'0 0.0
2015-Jul-17 18:29N 01°17' E 103°46'0 0.0
2015-Jul-17 17:29N 01°17' E 103°46'1 0.9
2015-Jul-17 16:32N 01°17' E 103°45'9 9.4
2015-Jul-17 15:33N 01°13' E 103°54'1010.3
2015-Jul-17 14:33N 01°16' E 104°04'  
2015-Jul-13 08:27N 22°07' E 114°15'1311.8
2015-Jul-13 07:23N 22°16' E 114°06'4 4.0
2015-Jul-13 06:30N 22°20' E 114°07'0 0.0
2015-Jul-13 05:21N 22°20' E 114°07'0 0.0
2015-Jul-13 03:21N 22°20' E 114°07'0 0.0
2015-Jul-13 02:27N 22°20' E 114°07'0 0.0
2015-Jul-13 01:33N 22°20' E 114°07'0 0.0
2015-Jul-12 21:18N 22°20' E 114°07'0 0.0
2015-Jul-12 19:24N 22°20' E 114°07'8 8.0
2015-Jul-12 18:25N 22°13' E 114°10'9 9.9
2015-Jul-12 17:32N 22°09' E 114°19'1111.3
2015-Jul-12 16:32N 22°16' E 114°29'6 5.7
2015-Jul-12 15:30N 22°20' E 114°33'3 0.3
2015-Jul-12 07:19N 22°17' E 114°33'6 0.3
2015-Jul-11 13:33N 22°23' E 114°29'5 4.9
2015-Jul-11 12:33N 22°18' E 114°31'2 1.7
2015-Jul-11 11:33N 22°19' E 114°33'  
Track history (hours):
 
Tides and Currents Weather Stations Pressure Air Temp Water Temp Dewpoint Dewpoint Depression Visibility Wind Speed Wind Dir Waves Ship Positions

Tubul

Last reported at 2015-Jul-20 16:23 UTC. Time now 2015-Jul-28 03:30 UTC.
Position N 03°21' E 100°22'.

Length 300 m; draft 12.7 m.

Type: Ship. MMSI: 636014647.

Date/timePositionNaut miles runAvg speedWind from/ knotsBaromVisibWave heightAir tempDewpointWater temp
2015-Jul-20 16:23N 03°21' E 100°22'1717.4
2015-Jul-20 15:23N 03°11' E 100°36'1817.5
2015-Jul-20 14:21N 02°60' E 100°50'3117.2
2015-Jul-20 12:33N 02°42' E 101°15'3417.0
2015-Jul-20 10:33N 02°24' E 101°44'136 2.9
2015-Jul-18 11:32N 01°13' E 103°40'7 6.4
2015-Jul-18 10:29N 01°17' E 103°46'0 0.0
2015-Jul-18 09:26N 01°17' E 103°46'0 0.0
2015-Jul-18 08:29N 01°17' E 103°46'0 0.0
2015-Jul-18 07:29N 01°17' E 103°46'0 0.0
2015-Jul-18 06:26N 01°17' E 103°46'0 0.0
2015-Jul-18 05:29N 01°17' E 103°46'0 0.0
2015-Jul-18 04:29N 01°17' E 103°46'0 0.0
2015-Jul-18 03:17N 01°17' E 103°46'0 0.0
2015-Jul-18 02:29N 01°17' E 103°46'0 0.0
2015-Jul-18 01:29N 01°17' E 103°46'0 0.0
2015-Jul-18 00:29N 01°17' E 103°46'0 0.0
2015-Jul-17 23:17N 01°17' E 103°46'0 0.0
2015-Jul-17 21:29N 01°17' E 103°46'0 0.0
2015-Jul-17 20:26N 01°17' E 103°46'0 0.0
2015-Jul-17 19:29N 01°17' E 103°46'0 0.0
2015-Jul-17 18:29N 01°17' E 103°46'0 0.0
2015-Jul-17 17:29N 01°17' E 103°46'1 0.9
2015-Jul-17 16:32N 01°17' E 103°45'9 9.4
2015-Jul-17 15:33N 01°13' E 103°54'1010.3
2015-Jul-17 14:33N 01°16' E 104°04'  
2015-Jul-13 08:27N 22°07' E 114°15'1311.8
2015-Jul-13 07:23N 22°16' E 114°06'4 4.0
2015-Jul-13 06:30N 22°20' E 114°07'0 0.0
2015-Jul-13 05:21N 22°20' E 114°07'0 0.0
2015-Jul-13 03:21N 22°20' E 114°07'0 0.0
2015-Jul-13 02:27N 22°20' E 114°07'0 0.0
2015-Jul-13 01:33N 22°20' E 114°07'0 0.0
2015-Jul-12 21:18N 22°20' E 114°07'0 0.0
2015-Jul-12 19:24N 22°20' E 114°07'8 8.0
2015-Jul-12 18:25N 22°13' E 114°10'9 9.9
2015-Jul-12 17:32N 22°09' E 114°19'1111.3
2015-Jul-12 16:32N 22°16' E 114°29'6 5.7
2015-Jul-12 15:30N 22°20' E 114°33'3 0.3
2015-Jul-12 07:19N 22°17' E 114°33'6 0.3
2015-Jul-11 13:33N 22°23' E 114°29'5 4.9
2015-Jul-11 12:33N 22°18' E 114°31'2 1.7
2015-Jul-11 11:33N 22°19' E 114°33'  

Dump ship's entire track history